Time;durP1;ratioP1;P1;durP2;ratioP2;P2;SDS_P1;SDS_P2;PMS_P1;PMS_P2;Temp;Humidity;BMP_temperature;BMP_pressure;BME280_temperature;BME280_humidity;BME280_pressure;Samples;Min_cycle;Max_cycle;Signal;HPM_P1;HPM_P2
2021/05/20 00:00:05;;;;;;;1.20;0.68;;;12.40;99.90;;;;;;5064898;28;20021;-51
2021/05/20 00:02:31;;;;;;;0.68;0.50;;;12.30;99.90;;;;;;5064560;28;20289;-50
2021/05/20 00:04:57;;;;;;;0.50;0.50;;;12.30;99.90;;;;;;5064442;28;20111;-50
2021/05/20 00:07:23;;;;;;;0.45;0.45;;;12.20;99.90;;;;;;5065483;28;20036;-48
2021/05/20 00:09:50;;;;;;;1.25;0.50;;;12.10;99.90;;;;;;5065382;28;20038;-47
2021/05/20 00:12:15;;;;;;;0.40;0.40;;;12.00;99.90;;;;;;5063732;28;20399;-48
2021/05/20 00:14:41;;;;;;;0.40;0.40;;;12.00;99.90;;;;;;5063850;28;20028;-48
2021/05/20 00:17:07;;;;;;;0.98;0.80;;;12.00;99.90;;;;;;5064182;28;20576;-49
2021/05/20 00:19:33;;;;;;;0.50;0.50;;;12.10;99.90;;;;;;5064595;28;20397;-47
2021/05/20 00:21:59;;;;;;;0.82;0.60;;;12.00;99.90;;;;;;5064462;28;20024;-50
2021/05/20 00:24:25;;;;;;;0.63;0.60;;;12.00;99.90;;;;;;5065481;28;20074;-51
2021/05/20 00:26:50;;;;;;;1.08;0.50;;;12.00;99.90;;;;;;5065027;28;20491;-47
2021/05/20 00:29:17;;;;;;;0.77;0.60;;;11.80;99.90;;;;;;5063813;28;20502;-48
2021/05/20 00:31:42;;;;;;;0.77;0.50;;;11.80;99.90;;;;;;5063348;28;20025;-50
2021/05/20 00:34:08;;;;;;;0.40;0.40;;;11.70;99.90;;;;;;5064390;28;20036;-50
2021/05/20 00:36:34;;;;;;;0.75;0.50;;;11.70;99.90;;;;;;5064472;28;20089;-47
2021/05/20 00:39:02;;;;;;;0.40;0.40;;;11.70;99.90;;;;;;5062869;28;20062;-49
2021/05/20 00:41:28;;;;;;;0.90;0.60;;;11.70;99.90;;;;;;5064614;28;20032;-49
2021/05/20 00:43:54;;;;;;;0.85;0.60;;;11.70;99.90;;;;;;5065105;28;20047;-47
2021/05/20 00:46:21;;;;;;;0.70;0.60;;;11.60;99.90;;;;;;5064283;28;20025;-47
2021/05/20 00:48:47;;;;;;;0.60;0.60;;;11.50;99.90;;;;;;5064127;28;20032;-48
2021/05/20 00:51:13;;;;;;;0.60;0.60;;;11.50;99.90;;;;;;5062858;28;20123;-48
2021/05/20 00:53:40;;;;;;;0.70;0.43;;;11.40;99.90;;;;;;5064356;28;20107;-49
2021/05/20 00:56:07;;;;;;;1.25;0.52;;;11.50;99.90;;;;;;5063969;28;20077;-50
2021/05/20 00:58:32;;;;;;;0.43;0.43;;;11.40;99.90;;;;;;5064152;28;20542;-46
2021/05/20 01:00:59;;;;;;;0.75;0.43;;;11.40;99.90;;;;;;5063137;28;20032;-49
2021/05/20 01:03:24;;;;;;;0.50;0.50;;;11.40;99.90;;;;;;5064878;28;20028;-49
2021/05/20 01:05:56;;;;;;;0.73;0.30;;;11.30;99.90;;;;;;5063888;28;20051;-46
2021/05/20 01:08:22;;;;;;;0.55;0.40;;;11.30;99.90;;;;;;5064969;28;20029;-46
2021/05/20 01:10:48;;;;;;;0.40;0.40;;;11.50;99.90;;;;;;5063939;28;20048;-46
2021/05/20 01:13:15;;;;;;;0.30;0.30;;;11.40;99.90;;;;;;5061723;28;20414;-49
2021/05/20 01:15:41;;;;;;;0.35;0.35;;;11.50;99.90;;;;;;5063362;28;20021;-47
2021/05/20 01:18:07;;;;;;;0.40;0.38;;;11.40;99.90;;;;;;5063580;28;20025;-48
2021/05/20 01:20:37;;;;;;;0.30;0.30;;;11.50;99.90;;;;;;5064375;28;20070;-48
2021/05/20 01:23:07;;;;;;;0.60;0.30;;;11.60;99.90;;;;;;5063621;28;20496;-50
2021/05/20 01:25:34;;;;;;;0.20;0.20;;;11.60;99.90;;;;;;5064171;28;20028;-50
2021/05/20 01:28:04;;;;;;;0.30;0.30;;;11.60;99.90;;;;;;5062882;28;20082;-49
2021/05/20 01:30:34;;;;;;;0.45;0.30;;;11.50;99.90;;;;;;5063865;28;20025;-49
2021/05/20 01:33:00;;;;;;;0.32;0.30;;;11.50;99.90;;;;;;5061625;28;20460;-47
2021/05/20 01:35:27;;;;;;;0.40;0.30;;;11.60;99.90;;;;;;5061884;28;20028;-47
2021/05/20 01:38:41;;;;;;;1.45;0.30;;;11.50;99.90;;;;;;5064233;28;20067;-50
2021/05/20 01:40:59;;;;;;;0.30;0.30;;;11.60;99.90;;;;;;5044022;28;20495;-48
2021/05/20 01:43:27;;;;;;;0.20;0.20;;;11.60;99.90;;;;;;5046792;28;20491;-48
2021/05/20 01:46:02;;;;;;;0.40;0.40;;;11.60;99.90;;;;;;5048784;28;20032;-48
2021/05/20 01:48:56;;;;;;;0.25;0.25;;;11.60;99.90;;;;;;5048007;28;20112;-46
2021/05/20 01:51:22;;;;;;;0.30;0.30;;;11.80;99.90;;;;;;5061078;28;20079;-48
2021/05/20 01:53:56;;;;;;;0.50;0.30;;;11.80;99.90;;;;;;5068479;28;20038;-47
2021/05/20 01:56:24;;;;;;;0.32;0.32;;;11.60;99.90;;;;;;5068745;28;20160;-51
2021/05/20 01:58:51;;;;;;;0.30;0.30;;;11.50;99.90;;;;;;5068086;28;20025;-49
2021/05/20 02:01:18;;;;;;;0.35;0.35;;;11.50;99.90;;;;;;5067691;28;20028;-49
2021/05/20 02:03:44;;;;;;;1.35;0.60;;;11.60;99.90;;;;;;5067467;28;20028;-51
2021/05/20 02:06:10;;;;;;;0.30;0.30;;;11.50;99.90;;;;;;5067117;28;20564;-49
2021/05/20 02:08:37;;;;;;;0.50;0.40;;;11.60;99.90;;;;;;5067881;28;20024;-51
2021/05/20 02:11:05;;;;;;;0.75;0.75;;;11.70;99.90;;;;;;5067688;28;20044;-47
2021/05/20 02:13:31;;;;;;;0.30;0.30;;;11.70;99.90;;;;;;5068038;28;20075;-47
2021/05/20 02:15:57;;;;;;;0.38;0.35;;;11.70;99.90;;;;;;5066533;28;20032;-47
2021/05/20 02:18:23;;;;;;;0.30;0.30;;;11.50;99.90;;;;;;5068081;28;20028;-46
2021/05/20 02:20:49;;;;;;;0.40;0.40;;;11.40;99.90;;;;;;5068023;28;20078;-47
2021/05/20 02:23:16;;;;;;;0.38;0.35;;;11.30;99.90;;;;;;5067207;28;20111;-48
2021/05/20 02:25:42;;;;;;;0.35;0.35;;;11.40;99.90;;;;;;5067598;28;20027;-46
2021/05/20 02:28:09;;;;;;;0.82;0.40;;;11.50;99.90;;;;;;5067363;28;20017;-50
2021/05/20 02:30:36;;;;;;;0.40;0.30;;;11.50;99.90;;;;;;5067490;28;20035;-48
2021/05/20 02:33:01;;;;;;;0.40;0.40;;;11.40;99.90;;;;;;5066193;28;20836;-46
2021/05/20 02:35:28;;;;;;;0.40;0.30;;;11.40;99.90;;;;;;5067210;28;20101;-46
2021/05/20 02:37:55;;;;;;;0.30;0.30;;;11.40;99.90;;;;;;5068204;28;20267;-48
2021/05/20 02:40:22;;;;;;;0.38;0.30;;;11.40;99.90;;;;;;5068466;28;20052;-47
2021/05/20 02:42:48;;;;;;;0.55;0.40;;;11.30;99.90;;;;;;5067405;28;20104;-49
2021/05/20 02:45:19;;;;;;;0.32;0.32;;;11.40;99.90;;;;;;5066988;28;20519;-50
2021/05/20 02:47:47;;;;;;;0.40;0.40;;;11.40;99.90;;;;;;5066874;28;20032;-47
2021/05/20 02:50:15;;;;;;;0.40;0.40;;;11.40;99.90;;;;;;5066801;28;20422;-51
2021/05/20 02:52:45;;;;;;;0.52;0.45;;;11.30;99.90;;;;;;5067285;28;20461;-49
2021/05/20 02:55:16;;;;;;;0.30;0.30;;;11.40;99.90;;;;;;5066538;28;20039;-49
2021/05/20 02:57:44;;;;;;;0.40;0.40;;;11.40;99.90;;;;;;5066861;28;20017;-46
2021/05/20 03:00:10;;;;;;;0.40;0.40;;;11.50;99.90;;;;;;5066173;28;20020;-48
2021/05/20 03:02:36;;;;;;;0.50;0.50;;;11.50;99.90;;;;;;5066857;28;20020;-50
2021/05/20 03:05:02;;;;;;;0.50;0.50;;;11.50;99.90;;;;;;5066793;28;20024;-50
2021/05/20 03:07:29;;;;;;;0.40;0.40;;;11.40;99.90;;;;;;5065996;28;20029;-47
2021/05/20 03:09:54;;;;;;;1.17;0.50;;;11.40;99.90;;;;;;5067314;28;20025;-45
2021/05/20 03:12:20;;;;;;;0.90;0.60;;;11.50;99.90;;;;;;5066709;28;20029;-46
2021/05/20 03:14:46;;;;;;;0.40;0.40;;;11.40;99.90;;;;;;5066769;28;20043;-50
2021/05/20 03:17:12;;;;;;;0.32;0.32;;;11.30;99.90;;;;;;5065838;28;20029;-50
2021/05/20 03:19:42;;;;;;;0.40;0.40;;;11.20;99.90;;;;;;5066546;28;20072;-50
2021/05/20 03:22:08;;;;;;;0.40;0.40;;;11.30;99.90;;;;;;5066281;28;20013;-50
2021/05/20 03:24:35;;;;;;;0.60;0.40;;;11.20;99.90;;;;;;5066551;28;20066;-50
2021/05/20 03:27:02;;;;;;;0.30;0.30;;;11.20;99.90;;;;;;5066120;28;20096;-51
2021/05/20 03:29:28;;;;;;;0.40;0.40;;;11.20;99.90;;;;;;5065544;28;20024;-47
2021/05/20 03:31:54;;;;;;;0.40;0.40;;;11.10;99.90;;;;;;5067110;28;20027;-47
2021/05/20 03:34:20;;;;;;;0.40;0.40;;;11.00;99.90;;;;;;5066356;28;20086;-50
2021/05/20 03:36:47;;;;;;;1.08;0.63;;;11.10;99.90;;;;;;5064735;28;20032;-49
2021/05/20 03:39:13;;;;;;;0.35;0.35;;;11.00;99.90;;;;;;5066178;28;20481;-49
2021/05/20 03:41:39;;;;;;;0.95;0.43;;;11.00;99.90;;;;;;5066155;28;20406;-48
2021/05/20 03:44:05;;;;;;;0.60;0.35;;;11.00;99.90;;;;;;5065978;28;20025;-48
2021/05/20 03:46:32;;;;;;;0.60;0.50;;;10.90;99.90;;;;;;5066190;28;20501;-48
2021/05/20 03:48:59;;;;;;;0.60;0.57;;;10.90;99.90;;;;;;5065635;28;20056;-47
2021/05/20 03:51:24;;;;;;;0.85;0.70;;;10.80;99.90;;;;;;5066734;28;20024;-50
2021/05/20 03:53:51;;;;;;;0.68;0.40;;;10.80;99.90;;;;;;5065859;28;20468;-50
2021/05/20 03:56:18;;;;;;;1.02;0.60;;;10.70;99.90;;;;;;5063227;28;20078;-46
2021/05/20 03:58:43;;;;;;;0.80;0.80;;;10.70;99.90;;;;;;5066072;28;20593;-46
2021/05/20 04:01:09;;;;;;;0.60;0.60;;;10.90;99.90;;;;;;5065262;28;20020;-48
2021/05/20 04:03:35;;;;;;;1.25;0.50;;;11.00;99.90;;;;;;5065097;28;20078;-47
2021/05/20 04:06:02;;;;;;;1.25;0.50;;;11.00;99.90;;;;;;5063397;28;20040;-46
2021/05/20 04:08:28;;;;;;;0.30;0.30;;;10.90;99.90;;;;;;5065642;28;20032;-49
2021/05/20 04:10:54;;;;;;;1.17;0.40;;;10.90;99.90;;;;;;5064734;28;20044;-50
2021/05/20 04:13:26;;;;;;;0.30;0.30;;;10.70;99.90;;;;;;5065293;28;20044;-49
2021/05/20 04:15:52;;;;;;;1.85;0.60;;;10.70;99.90;;;;;;5064770;28;20515;-48
2021/05/20 04:18:19;;;;;;;0.70;0.40;;;10.60;99.90;;;;;;5065349;28;20077;-48
2021/05/20 04:20:46;;;;;;;0.52;0.52;;;10.60;99.90;;;;;;5065366;28;20017;-51
2021/05/20 04:23:11;;;;;;;1.25;0.50;;;10.70;99.90;;;;;;5065153;28;20454;-46
2021/05/20 04:25:37;;;;;;;0.50;0.50;;;10.60;99.90;;;;;;5065312;28;20028;-47
2021/05/20 04:28:03;;;;;;;1.23;0.60;;;10.40;99.90;;;;;;5065210;28;20494;-50
2021/05/20 04:30:29;;;;;;;0.57;0.57;;;10.50;99.90;;;;;;5065083;28;20040;-46
2021/05/20 04:32:55;;;;;;;0.70;0.70;;;10.40;99.90;;;;;;5065644;28;20050;-46
2021/05/20 04:35:20;;;;;;;1.60;0.60;;;10.60;99.90;;;;;;5067192;28;20017;-47
2021/05/20 04:37:46;;;;;;;0.60;0.60;;;10.70;99.90;;;;;;5065566;28;20029;-46
2021/05/20 04:40:13;;;;;;;1.35;0.60;;;10.60;99.90;;;;;;5066489;28;20032;-47
2021/05/20 04:42:39;;;;;;;0.70;0.70;;;10.60;99.90;;;;;;5066615;28;20016;-48
2021/05/20 04:45:05;;;;;;;1.98;0.60;;;10.70;99.90;;;;;;5064818;28;20048;-47
2021/05/20 04:47:31;;;;;;;0.75;0.75;;;10.60;99.90;;;;;;5066218;28;20032;-48
2021/05/20 04:49:57;;;;;;;1.20;0.65;;;10.60;99.90;;;;;;5066361;28;20020;-50
2021/05/20 04:52:22;;;;;;;0.90;0.70;;;10.60;99.90;;;;;;5066387;28;20024;-48
2021/05/20 04:54:48;;;;;;;1.30;0.60;;;10.60;99.90;;;;;;5067086;28;20670;-46
2021/05/20 04:57:14;;;;;;;0.93;0.90;;;10.70;99.90;;;;;;5065391;28;20428;-47
2021/05/20 04:59:39;;;;;;;0.70;0.70;;;10.70;99.90;;;;;;5066424;28;20482;-49
2021/05/20 05:02:06;;;;;;;0.75;0.73;;;10.60;99.90;;;;;;5065953;28;20655;-48
2021/05/20 05:04:31;;;;;;;0.98;0.80;;;10.60;99.90;;;;;;5066568;28;20099;-47
2021/05/20 05:06:57;;;;;;;0.77;0.70;;;10.60;99.90;;;;;;5065801;28;20203;-47
2021/05/20 05:09:23;;;;;;;1.40;1.17;;;10.70;99.90;;;;;;5066576;28;20483;-46
2021/05/20 05:11:49;;;;;;;0.70;0.65;;;10.80;99.90;;;;;;5066418;28;20040;-48
2021/05/20 05:14:14;;;;;;;0.80;0.70;;;10.80;99.90;;;;;;5065593;28;20033;-46
2021/05/20 05:16:40;;;;;;;1.00;0.90;;;10.80;99.90;;;;;;5065014;28;20051;-50
2021/05/20 05:19:07;;;;;;;1.20;1.10;;;10.90;99.90;;;;;;5072654;28;20050;-50
2021/05/20 05:21:33;;;;;;;1.27;1.10;;;10.90;99.90;;;;;;5072893;28;20020;-50
2021/05/20 05:23:58;;;;;;;3.65;1.20;;;10.90;99.90;;;;;;5072601;28;20028;-48
2021/05/20 05:26:24;;;;;;;1.90;1.00;;;10.90;99.90;;;;;;5072994;28;20068;-47
2021/05/20 05:28:50;;;;;;;1.15;1.02;;;11.00;99.90;;;;;;5073398;28;20029;-47
2021/05/20 05:31:21;;;;;;;1.30;1.20;;;11.00;99.90;;;;;;5069768;28;20027;-47
2021/05/20 05:33:46;;;;;;;2.70;1.02;;;11.00;99.90;;;;;;5072824;28;20035;-47
2021/05/20 05:36:12;;;;;;;1.00;0.90;;;11.00;99.90;;;;;;5070692;28;20869;-47
2021/05/20 05:38:38;;;;;;;1.25;1.15;;;11.10;99.90;;;;;;5072728;28;20035;-46
2021/05/20 05:41:04;;;;;;;1.20;1.10;;;11.20;99.90;;;;;;5072430;28;20028;-46
2021/05/20 05:43:29;;;;;;;1.10;0.88;;;11.20;99.90;;;;;;5072757;28;20503;-48
2021/05/20 05:45:55;;;;;;;1.63;0.98;;;11.30;99.90;;;;;;5072207;28;20690;-47
2021/05/20 05:48:21;;;;;;;0.80;0.80;;;11.30;99.90;;;;;;5073325;28;20024;-47
2021/05/20 05:50:49;;;;;;;1.02;0.93;;;11.20;99.90;;;;;;5071743;28;20021;-47
2021/05/20 05:53:14;;;;;;;0.70;0.70;;;11.30;99.90;;;;;;5070802;28;20357;-47
2021/05/20 05:55:40;;;;;;;0.73;0.73;;;11.40;99.90;;;;;;5072757;28;20064;-46
2021/05/20 05:58:06;;;;;;;0.50;0.50;;;11.40;99.90;;;;;;5070374;28;20029;-47
2021/05/20 06:00:32;;;;;;;0.73;0.60;;;11.50;99.90;;;;;;5071633;28;20025;-50
2021/05/20 06:02:58;;;;;;;0.77;0.77;;;11.40;99.90;;;;;;5072157;28;20035;-49
2021/05/20 06:05:24;;;;;;;1.13;0.80;;;11.50;99.90;;;;;;5070885;28;20028;-50
2021/05/20 06:07:49;;;;;;;0.80;0.80;;;11.50;99.90;;;;;;5072290;28;20498;-51
2021/05/20 06:10:15;;;;;;;0.70;0.70;;;11.50;99.90;;;;;;5071060;28;20028;-50
2021/05/20 06:12:41;;;;;;;0.80;0.80;;;11.50;99.90;;;;;;5071531;28;20033;-50
2021/05/20 06:15:08;;;;;;;0.73;0.73;;;11.50;99.90;;;;;;5071865;28;20046;-48
2021/05/20 06:17:38;;;;;;;0.80;0.80;;;11.60;99.90;;;;;;5072254;28;20028;-50
2021/05/20 06:20:06;;;;;;;0.70;0.70;;;11.50;99.90;;;;;;5072496;28;20029;-50
2021/05/20 06:22:32;;;;;;;0.95;0.82;;;11.50;99.90;;;;;;5070285;28;20387;-50
2021/05/20 06:24:58;;;;;;;1.00;0.90;;;11.60;99.90;;;;;;5072134;28;20032;-50
2021/05/20 06:27:26;;;;;;;1.73;1.10;;;11.60;99.90;;;;;;5070936;28;20582;-47
2021/05/20 06:29:56;;;;;;;1.55;1.10;;;11.60;99.90;;;;;;5068137;28;20040;-51
2021/05/20 06:32:23;;;;;;;0.93;0.90;;;11.80;99.90;;;;;;5067482;28;20107;-48
2021/05/20 06:34:49;;;;;;;1.20;1.10;;;11.70;99.90;;;;;;5068920;28;20399;-51
2021/05/20 06:37:14;;;;;;;1.40;1.27;;;11.70;99.90;;;;;;5068269;28;20028;-48
2021/05/20 06:39:41;;;;;;;1.90;1.40;;;11.70;99.90;;;;;;5069003;28;20400;-51
2021/05/20 06:42:11;;;;;;;1.30;1.20;;;11.80;99.90;;;;;;5068593;28;20021;-51
2021/05/20 06:44:39;;;;;;;1.40;1.30;;;11.80;99.90;;;;;;5068703;28;20025;-50
2021/05/20 06:47:05;;;;;;;1.77;1.65;;;11.80;99.90;;;;;;5068171;28;20025;-51
2021/05/20 06:49:31;;;;;;;1.73;1.52;;;11.90;99.90;;;;;;5069039;28;20078;-49
2021/05/20 06:51:57;;;;;;;1.90;1.45;;;11.90;99.90;;;;;;5068262;28;20008;-48
2021/05/20 06:54:23;;;;;;;1.25;1.15;;;11.70;99.90;;;;;;5067796;28;20031;-50
2021/05/20 06:57:09;;;;;;;1.33;1.23;;;11.70;99.90;;;;;;5068391;28;20040;-51
2021/05/20 07:02:20;;;;;;;0.95;0.88;;;11.80;99.90;;;;;;5067881;28;20082;-51
2021/05/20 07:04:45;;;;;;;0.70;0.70;;;11.70;99.90;;;;;;5068335;28;20608;-48
2021/05/20 07:07:12;;;;;;;0.77;0.77;;;11.80;99.90;;;;;;5066248;28;20043;-50
2021/05/20 07:09:39;;;;;;;1.70;1.00;;;11.80;99.90;;;;;;5067842;28;20078;-50
2021/05/20 07:12:06;;;;;;;0.80;0.60;;;12.00;99.90;;;;;;5068055;28;20060;-48
2021/05/20 07:14:32;;;;;;;0.85;0.60;;;12.00;99.90;;;;;;5066693;28;20443;-49
2021/05/20 07:16:57;;;;;;;1.08;0.90;;;11.70;99.90;;;;;;5066050;28;20040;-50
2021/05/20 07:19:23;;;;;;;1.35;0.80;;;11.60;99.90;;;;;;5068079;28;20029;-49
2021/05/20 07:21:50;;;;;;;1.10;0.80;;;11.90;99.90;;;;;;5067574;28;20435;-50
2021/05/20 07:24:16;;;;;;;0.80;0.80;;;12.10;99.90;;;;;;5067330;28;20028;-50
2021/05/20 07:26:42;;;;;;;0.80;0.80;;;12.00;99.90;;;;;;5067983;28;20104;-51
2021/05/20 07:29:08;;;;;;;0.68;0.68;;;12.00;99.90;;;;;;5067594;28;20103;-50
2021/05/20 07:31:34;;;;;;;0.80;0.80;;;12.10;99.90;;;;;;5066372;28;20032;-51
2021/05/20 07:34:00;;;;;;;0.70;0.70;;;12.20;99.90;;;;;;5067347;28;20028;-49
2021/05/20 07:36:27;;;;;;;1.15;0.98;;;12.30;99.90;;;;;;5064449;28;20028;-50
2021/05/20 07:38:53;;;;;;;0.60;0.60;;;12.30;99.90;;;;;;5057955;28;20032;-49
2021/05/20 07:41:20;;;;;;;1.10;0.95;;;12.40;99.90;;;;;;5064699;28;20521;-47
2021/05/20 07:43:45;;;;;;;1.10;0.90;;;12.40;99.90;;;;;;5066111;28;20493;-49
2021/05/20 07:46:12;;;;;;;0.88;0.80;;;12.40;99.90;;;;;;5065489;28;20082;-51
2021/05/20 07:48:38;;;;;;;0.85;0.80;;;12.50;99.90;;;;;;5065433;28;20033;-47
2021/05/20 07:51:06;;;;;;;0.68;0.68;;;12.60;99.90;;;;;;5061981;28;20450;-51
2021/05/20 07:53:33;;;;;;;0.70;0.70;;;12.70;99.90;;;;;;5066354;28;20058;-49
2021/05/20 07:55:59;;;;;;;0.75;0.60;;;12.80;99.90;;;;;;5065418;28;20110;-52
2021/05/20 07:58:25;;;;;;;0.50;0.50;;;12.80;99.90;;;;;;5065223;28;20025;-49
2021/05/20 08:00:52;;;;;;;0.50;0.50;;;12.90;99.90;;;;;;5065435;28;20087;-51
2021/05/20 08:03:26;;;;;;;0.60;0.50;;;13.00;99.90;;;;;;5064502;28;20028;-49
2021/05/20 08:08:45;;;;;;;0.68;0.68;;;13.20;99.90;;;;;;5062425;28;20660;-50
2021/05/20 08:11:10;;;;;;;0.60;0.50;;;13.10;99.90;;;;;;5064491;28;20502;-52
2021/05/20 08:13:36;;;;;;;0.57;0.57;;;13.00;99.90;;;;;;5064057;28;20082;-51
2021/05/20 08:16:03;;;;;;;0.52;0.52;;;13.10;99.90;;;;;;5066115;28;20123;-52
2021/05/20 08:18:30;;;;;;;0.82;0.70;;;13.00;99.90;;;;;;5064998;28;20029;-49
2021/05/20 08:20:57;;;;;;;1.02;0.93;;;13.00;99.90;;;;;;5066663;28;20040;-51
2021/05/20 08:23:23;;;;;;;0.50;0.50;;;12.90;99.90;;;;;;5066817;28;20098;-50
2021/05/20 08:25:49;;;;;;;1.00;0.60;;;13.00;99.90;;;;;;5066887;28;20032;-48
2021/05/20 08:28:16;;;;;;;0.50;0.50;;;12.90;99.90;;;;;;5065201;28;20036;-50
2021/05/20 08:30:43;;;;;;;0.45;0.45;;;12.80;99.90;;;;;;5065493;28;20024;-51
2021/05/20 08:33:09;;;;;;;0.95;0.50;;;13.10;99.90;;;;;;5066328;28;20032;-51
2021/05/20 08:35:35;;;;;;;0.40;0.40;;;13.20;99.90;;;;;;5066659;28;20032;-51
2021/05/20 08:38:02;;;;;;;0.63;0.47;;;13.20;99.90;;;;;;5066335;28;20021;-48
2021/05/20 08:40:27;;;;;;;0.30;0.30;;;13.30;99.90;;;;;;5065820;28;20033;-50
2021/05/20 08:42:53;;;;;;;1.27;0.60;;;13.50;99.90;;;;;;5065764;28;20067;-50
2021/05/20 08:45:24;;;;;;;1.00;0.70;;;13.50;99.90;;;;;;5066162;28;20811;-51
2021/05/20 08:47:52;;;;;;;1.88;1.00;;;13.20;99.90;;;;;;5066047;28;20032;-49
2021/05/20 08:50:20;;;;;;;1.77;1.00;;;13.10;99.90;;;;;;5063662;28;20457;-50
2021/05/20 08:52:47;;;;;;;2.08;1.50;;;13.20;99.90;;;;;;5063445;28;20422;-48
2021/05/20 08:55:19;;;;;;;2.58;1.35;;;13.00;99.90;;;;;;5064879;28;20043;-47
2021/05/20 08:57:45;;;;;;;1.80;1.02;;;13.20;99.90;;;;;;5065688;28;20518;-52
2021/05/20 09:00:14;;;;;;;1.38;0.95;;;13.40;99.90;;;;;;5064499;28;20017;-50
2021/05/20 09:02:40;;;;;;;1.38;0.60;;;13.60;99.90;;;;;;5065005;28;20132;-49
2021/05/20 09:05:10;;;;;;;1.00;0.70;;;13.60;99.90;;;;;;5064406;28;20156;-51
2021/05/20 09:07:38;;;;;;;0.50;0.50;;;13.90;99.90;;;;;;5064208;28;20040;-51
2021/05/20 09:10:08;;;;;;;0.50;0.50;;;14.00;99.90;;;;;;5063656;28;20021;-50
2021/05/20 09:12:34;;;;;;;0.30;0.30;;;14.00;99.90;;;;;;5064778;28;20052;-51
2021/05/20 09:15:00;;;;;;;0.85;0.52;;;13.80;99.90;;;;;;5064051;28;20209;-51
2021/05/20 09:17:26;;;;;;;0.32;0.30;;;14.00;99.90;;;;;;5063715;28;20029;-49
2021/05/20 09:20:00;;;;;;;1.33;0.70;;;14.20;99.90;;;;;;5064593;28;20028;-52
2021/05/20 09:22:27;;;;;;;1.35;0.95;;;13.90;99.90;;;;;;5064569;28;20021;-49
2021/05/20 09:24:58;;;;;;;0.80;0.80;;;13.60;99.90;;;;;;5064550;28;20030;-51
2021/05/20 09:27:35;;;;;;;0.60;0.60;;;13.60;99.90;;;;;;5064340;28;20074;-48
2021/05/20 09:30:14;;;;;;;0.60;0.60;;;13.60;99.90;;;;;;5064323;28;20100;-48
2021/05/20 09:32:57;;;;;;;3.83;1.10;;;14.00;99.90;;;;;;5064546;28;20048;-52
2021/05/20 09:35:30;;;;;;;0.60;0.55;;;13.90;99.90;;;;;;5064465;28;20285;-52
2021/05/20 09:38:11;;;;;;;1.30;0.90;;;13.80;99.90;;;;;;5063787;28;20551;-49
2021/05/20 09:40:38;;;;;;;0.50;0.50;;;13.90;99.90;;;;;;5064728;28;20029;-50
2021/05/20 09:43:18;;;;;;;0.45;0.45;;;14.20;99.90;;;;;;5064005;28;20029;-52
2021/05/20 09:45:45;;;;;;;1.05;0.40;;;14.50;99.90;;;;;;5065354;28;20025;-51
2021/05/20 09:48:11;;;;;;;2.22;0.30;;;14.80;99.90;;;;;;5063593;28;20048;-49
2021/05/20 09:50:43;;;;;;;0.40;0.30;;;14.80;99.90;;;;;;5064382;28;20029;-52
2021/05/20 09:53:13;;;;;;;0.52;0.40;;;15.10;99.90;;;;;;5064310;28;20706;-52
2021/05/20 09:55:54;;;;;;;0.30;0.30;;;15.10;99.90;;;;;;5064497;28;20032;-51
2021/05/20 09:58:23;;;;;;;1.08;0.40;;;15.00;99.90;;;;;;5062558;28;20056;-51
2021/05/20 10:00:50;;;;;;;0.20;0.20;;;14.60;99.90;;;;;;5064135;28;20033;-52
2021/05/20 10:03:17;;;;;;;0.25;0.25;;;14.80;99.90;;;;;;5064558;28;20371;-52
2021/05/20 10:05:44;;;;;;;0.65;0.28;;;14.70;99.90;;;;;;5068156;28;20420;-49
2021/05/20 10:08:16;;;;;;;0.30;0.30;;;14.70;99.90;;;;;;5067422;28;20040;-51
2021/05/20 10:10:47;;;;;;;0.43;0.30;;;14.80;99.90;;;;;;5067880;28;20036;-50
2021/05/20 10:13:20;;;;;;;0.20;0.20;;;14.90;99.90;;;;;;5067771;28;20078;-51
2021/05/20 10:15:46;;;;;;;0.22;0.20;;;14.80;99.90;;;;;;5067976;28;20035;-51
2021/05/20 10:18:17;;;;;;;0.20;0.20;;;15.00;99.90;;;;;;5067158;28;20107;-52
2021/05/20 10:20:44;;;;;;;1.23;0.20;;;15.40;99.90;;;;;;5067843;28;20058;-50
2021/05/20 10:23:15;;;;;;;0.30;0.30;;;15.50;99.90;;;;;;5067311;28;20402;-49
2021/05/20 10:25:43;;;;;;;0.30;0.30;;;15.40;99.90;;;;;;5067383;28;20028;-49
2021/05/20 10:28:12;;;;;;;0.20;0.20;;;15.10;99.90;;;;;;5066912;28;20063;-52
2021/05/20 10:30:43;;;;;;;0.30;0.30;;;15.20;99.90;;;;;;5067767;28;20081;-50
2021/05/20 10:33:10;;;;;;;2.08;0.20;;;15.40;99.90;;;;;;5065747;28;20061;-52
2021/05/20 10:35:49;;;;;;;0.20;0.20;;;15.40;99.90;;;;;;5067460;28;20025;-50
2021/05/20 10:38:36;;;;;;;0.30;0.30;;;15.70;99.90;;;;;;5067433;28;20029;-52
2021/05/20 10:41:23;;;;;;;0.75;0.20;;;15.80;99.90;;;;;;5067039;28;20032;-52
2021/05/20 10:43:51;;;;;;;0.30;0.30;;;15.60;99.90;;;;;;5066307;28;20068;-51
2021/05/20 10:46:18;;;;;;;0.20;0.20;;;15.50;99.90;;;;;;5067371;28;20040;-51
2021/05/20 10:48:51;;;;;;;0.20;0.20;;;15.60;99.90;;;;;;5068511;28;20029;-51
2021/05/20 10:51:28;;;;;;;0.30;0.30;;;15.60;99.90;;;;;;5064580;28;20051;-51
2021/05/20 10:54:07;;;;;;;0.35;0.20;;;15.70;99.90;;;;;;5068388;28;20036;-52
2021/05/20 10:56:33;;;;;;;0.20;0.20;;;15.90;99.90;;;;;;5066326;28;20031;-50
2021/05/20 10:59:01;;;;;;;0.20;0.20;;;16.20;99.90;;;;;;5068111;28;20033;-49
2021/05/20 11:01:28;;;;;;;0.45;0.30;;;16.20;99.90;;;;;;5067202;28;20025;-50
2021/05/20 11:03:59;;;;;;;1.05;0.40;;;15.90;99.90;;;;;;5066951;28;20035;-49
2021/05/20 11:06:46;;;;;;;0.52;0.30;;;16.00;99.90;;;;;;5066855;28;20051;-51
2021/05/20 11:09:14;;;;;;;0.28;0.20;;;16.30;99.90;;;;;;5063697;28;20541;-52
2021/05/20 11:11:40;;;;;;;0.20;0.20;;;16.60;99.90;;;;;;5068057;28;20028;-49
2021/05/20 11:14:25;;;;;;;0.20;0.20;;;16.70;99.90;;;;;;5066449;28;20048;-52
2021/05/20 11:16:52;;;;;;;0.20;0.20;;;16.80;99.90;;;;;;5065687;28;20135;-52
2021/05/20 11:19:23;;;;;;;0.30;0.25;;;17.00;99.90;;;;;;5067934;28;20078;-50
2021/05/20 11:22:11;;;;;;;0.20;0.20;;;17.10;99.90;;;;;;5067405;28;20434;-49
2021/05/20 11:24:40;;;;;;;0.13;0.13;;;17.20;99.90;;;;;;5066722;28;20526;-50
2021/05/20 11:27:09;;;;;;;0.43;0.20;;;17.20;99.90;;;;;;5067140;28;20028;-51
2021/05/20 11:29:39;;;;;;;0.20;0.20;;;17.00;99.90;;;;;;5066239;28;20033;-51
2021/05/20 11:32:23;;;;;;;0.10;0.10;;;17.10;99.90;;;;;;5066341;28;20465;-51
2021/05/20 11:37:29;;;;;;;0.15;0.15;;;17.10;99.90;;;;;;5067114;28;20131;-54
2021/05/20 11:39:55;;;;;;;0.20;0.20;;;17.10;99.90;;;;;;5067274;28;20028;-49
2021/05/20 11:42:32;;;;;;;0.55;0.20;;;17.40;99.90;;;;;;5066906;28;20028;-51
2021/05/20 11:44:59;;;;;;;0.30;0.30;;;17.50;99.90;;;;;;5065888;28;20025;-49
2021/05/20 11:47:25;;;;;;;1.25;0.30;;;17.70;99.90;;;;;;5064722;28;20029;-51
2021/05/20 11:49:51;;;;;;;0.20;0.20;;;17.80;99.90;;;;;;5066284;28;20438;-50
2021/05/20 11:52:18;;;;;;;0.30;0.30;;;17.80;99.90;;;;;;5065674;28;20086;-52
2021/05/20 11:54:51;;;;;;;0.60;0.20;;;17.80;99.90;;;;;;5067315;28;20039;-51
2021/05/20 11:57:19;;;;;;;0.10;0.10;;;18.00;99.90;;;;;;5064975;28;20051;-51
2021/05/20 11:59:51;;;;;;;0.10;0.10;;;18.00;99.90;;;;;;5067505;28;20097;-50
2021/05/20 12:02:20;;;;;;;0.20;0.20;;;18.30;99.90;;;;;;5067086;28;20048;-50
2021/05/20 12:04:47;;;;;;;0.30;0.20;;;18.50;99.90;;;;;;5067434;28;20108;-50
2021/05/20 12:07:21;;;;;;;0.40;0.30;;;18.00;99.90;;;;;;5064977;28;20111;-49
2021/05/20 12:09:46;;;;;;;;;;;18.40;99.90;;;;;;5067045;28;20723;-49
2021/05/20 12:12:13;;;;;;;0.70;0.20;;;18.60;99.90;;;;;;5065415;28;20023;-49
2021/05/20 12:14:39;;;;;;;0.20;0.20;;;18.70;99.90;;;;;;5066669;28;20695;-48
2021/05/20 12:17:08;;;;;;;0.30;0.17;;;18.80;99.90;;;;;;5064186;28;20089;-48
2021/05/20 12:19:54;;;;;;;0.52;0.20;;;19.00;99.90;;;;;;5066141;28;20044;-50
2021/05/20 12:22:22;;;;;;;0.30;0.17;;;19.10;99.90;;;;;;5065667;28;20111;-48
2021/05/20 12:24:51;;;;;;;0.30;0.30;;;19.10;99.90;;;;;;5066393;28;20417;-48
2021/05/20 12:27:28;;;;;;;0.40;0.20;;;19.20;99.90;;;;;;5062143;28;20394;-49
2021/05/20 12:30:01;;;;;;;0.20;0.20;;;19.00;99.90;;;;;;5063667;28;20028;-51
2021/05/20 12:32:39;;;;;;;0.28;0.20;;;19.40;99.90;;;;;;5064381;28;20490;-49
2021/05/20 12:35:20;;;;;;;0.10;0.10;;;19.60;99.90;;;;;;5064728;28;20024;-48
2021/05/20 12:37:57;;;;;;;0.20;0.20;;;19.90;99.90;;;;;;5052172;28;20025;-49
2021/05/20 12:40:35;;;;;;;0.20;0.20;;;20.30;99.90;;;;;;5063300;28;20028;-48
2021/05/20 12:43:15;;;;;;;0.10;0.10;;;20.10;99.90;;;;;;5064658;28;20032;-51
2021/05/20 12:45:50;;;;;;;0.10;0.10;;;20.30;99.90;;;;;;5065100;28;20371;-49
2021/05/20 12:48:53;;;;;;;0.20;0.20;;;20.40;99.90;;;;;;5064258;28;20573;-48
2021/05/20 12:51:18;;;;;;;0.55;0.30;;;20.20;99.90;;;;;;5064901;28;20331;-48
2021/05/20 12:53:44;;;;;;;0.43;0.20;;;20.40;99.90;;;;;;5065565;28;20302;-48
2021/05/20 12:56:25;;;;;;;1.85;0.30;;;20.50;99.90;;;;;;5064709;28;20033;-48
2021/05/20 12:59:15;;;;;;;0.25;0.20;;;20.20;99.90;;;;;;5065058;28;20060;-48
2021/05/20 13:01:49;;;;;;;0.20;0.20;;;20.30;99.90;;;;;;5064649;28;20028;-48